Latest Weather Observations for Tasman Island

IDT60901

Issued at 5:25 pm EST Wednesday 17 September 2014 (issued every 10 minutes, with the page automatically refreshed every 10 minutes)

About weather observations | Map of Hobart area stations | Latest observations for Hobart area | Other Formats
Station Details ID: 094155 Name: TASMAN ISLAND Lat: -43.24 Lon: 148.00 Height: 240.0 m
Data from the previous 72 hours. | See also: Recent months at Tasman Island
Date/Time
EST
Tmp

°C
App
Tmp
°C
Dew
Point
°C
Rel
Hum
%
Delta-T

°C
Wind Press
QNH
hPa
Press
MSL
hPa
Rain
since
9 am
mm
Dir
 
Spd
km/h
Gust
km/h
Spd
kts
Gust
kts
17/05:00pm 6.4 -6.6 3.4 81 1.3 SW 61 83 33 45 1001.9 1002.1 8.4
17/04:59pm 6.4 -7.0 3.4 81 1.3 SW 63 83 34 45 1001.9 1002.1 8.4
17/04:33pm 7.5 -2.2 2.8 72 2.0 SW 43 76 23 41 1001.2 1001.4 8.2
17/04:30pm 7.6 -1.0 2.7 71 2.1 SSW 37 56 20 30 1001.5 1001.6 8.2
17/04:00pm 7.4 -4.9 3.3 75 1.8 SW 57 89 31 48 1000.7 1000.9 8.2
17/03:46pm 7.4 -5.8 4.7 83 1.2 SW 63 89 34 48 1000.6 1000.8 8.2
17/03:30pm 7.5 -1.2 3.9 78 1.6 SW 39 80 21 43 1000.6 1000.8 8.2
17/03:00pm 7.0 -0.4 5.2 88 0.8 SW 33 67 18 36 1000.7 1000.9 8.2
17/02:48pm 6.9 0.5 5.4 90 0.7 WSW 28 65 15 35 1000.7 1000.9 8.0
17/02:30pm 6.6 0.9 4.9 89 0.8 WSW 24 57 13 31 1000.8 1001.0 7.8
17/02:00pm 6.6 1.3 4.9 89 0.8 WSW 22 50 12 27 1000.9 1001.1 7.4
17/01:45pm 6.3 -0.2 4.9 91 0.6 WSW 28 61 15 33 1001.1 1001.3 7.4
17/01:30pm 6.1 0.9 5.5 96 0.3 WSW 22 48 12 26 1001.1 1001.3 7.4
17/01:04pm 5.3 -1.1 5.2 99 0.0 WSW 28 59 15 32 1001.4 1001.5 6.8
17/01:00pm 5.3 -0.7 5.2 99 0.0 WSW 26 59 14 32 1001.2 1001.4 6.6
17/12:35pm 5.4 -1.0 5.3 99 0.0 WSW 28 59 15 32 1001.2 1001.4 4.8
17/12:30pm 5.4 -0.2 5.3 99 0.0 WSW 24 46 13 25 1001.4 1001.5 4.2
17/12:00pm 5.8 0.2 5.5 98 0.1 SW 24 52 13 28 1001.7 1001.8 1.2
17/11:34am 7.3 0.9 5.3 87 0.9 SSW 28 52 15 28 1001.8 1001.9 0.0
17/11:30am 7.5 1.8 5.1 85 1.1 SSW 24 44 13 24 1001.9 1002.1 0.0
17/11:00am 9.2 6.5 5.6 78 1.7 W 9 24 5 13 1002.1 1002.3 0.0
17/10:30am 9.1 6.8 5.5 78 1.7 WNW 7 17 4 9 1002.4 1002.6 0.0
17/10:00am 9.0 6.8 5.2 77 1.7 W 6 17 3 9 1002.7 1002.9 0.0
17/09:30am 9.4 7.4 4.6 72 2.2 SE 4 11 2 6 1003.1 1003.3 0.0
17/09:00am 9.4 7.1 5.0 74 2.0 W 6 15 3 8 1003.2 1003.4 0.0
17/08:30am 9.1 6.2 4.7 74 2.0 WNW 9 13 5 7 1003.5 1003.7 0.0
17/08:00am 9.4 6.8 4.2 70 2.3 WNW 7 13 4 7 1003.6 1003.8 0.0
17/07:30am 9.3 6.3 4.3 71 2.2 WNW 9 15 5 8 1003.8 1004.0 0.0
17/07:00am 9.2 7.1 4.0 70 2.3 NW 4 9 2 5 1003.8 1004.0 0.0
17/06:30am 8.8 6.3 3.8 71 2.2 NW 6 19 3 10 1003.8 1004.0 0.0
17/06:00am 8.5 5.4 3.8 72 2.1 WNW 9 20 5 11 1004.0 1004.2 0.0
17/05:30am 8.8 5.7 3.6 70 2.3 WNW 9 26 5 14 1004.2 1004.4 0.0
17/05:00am 9.0 4.8 3.8 70 2.3 NW 15 22 8 12 1004.5 1004.7 0.0
17/04:30am 8.7 4.2 4.1 73 2.0 WNW 17 22 9 12 1004.8 1005.0 0.0
17/04:00am 8.9 5.9 4.1 72 2.1 NW 9 15 5 8 1005.1 1005.3 0.0
17/03:30am 8.7 5.9 5.3 79 1.5 WNW 9 15 5 8 1005.3 1005.6 0.0
17/03:00am 8.4 6.9 5.2 80 1.5 WNW 2 6 1 3 1005.6 1005.9 0.0
17/02:30am 8.3 5.9 5.1 80 1.4 WNW 7 11 4 6 1006.1 1006.3 0.0
17/02:00am 9.0 7.2 5.4 78 1.7 W 4 11 2 6 1006.5 1006.7 0.0
17/01:30am 9.0 6.7 5.6 79 1.6 NW 7 15 4 8 1006.8 1007.0 0.0
17/01:00am 8.4 5.2 5.3 81 1.4 WNW 11 15 6 8 1007.2 1007.4 0.0
17/12:30am 8.3 5.6 5.4 82 1.3 NW 9 13 5 7 1007.2 1007.4 0.0
17/12:00am 8.3 6.3 6.4 88 0.9 WNW 6 11 3 6 1007.2 1007.4 0.0
 
Date/Time
EST
Tmp

°C
App
Tmp
°C
Dew
Point
°C
Rel
Hum
%
Delta-T

°C
Wind Press
QNH
hPa
Press
MSL
hPa
Rain
since
9 am
mm
Dir
 
Spd
km/h
Gust
km/h
Spd
kts
Gust
kts
16/11:30pm 8.3 6.2 6.8 90 0.7 N 7 11 4 6 1007.4 1007.6 0.0
16/11:00pm 8.5 5.7 7.1 91 0.7 N 11 15 6 8 1007.7 1007.9 0.0
16/10:30pm 8.7 4.9 7.5 92 0.6 N 17 26 9 14 1007.9 1008.1 0.0
16/10:00pm 8.9 4.1 7.4 90 0.7 N 22 32 12 17 1008.1 1008.3 0.0
16/09:30pm 9.0 2.6 7.1 88 0.9 N 30 39 16 21 1008.3 1008.5 0.0
16/09:00pm 8.9 2.7 6.3 84 1.2 N 28 37 15 20 1008.5 1008.7 0.0
16/08:30pm 9.0 2.8 6.3 83 1.3 N 28 35 15 19 1008.6 1008.8 0.0
16/08:00pm 9.1 2.9 6.2 82 1.4 N 28 37 15 20 1008.7 1008.9 0.0
16/07:30pm 9.3 3.2 6.4 82 1.4 N 28 35 15 19 1008.7 1008.9 0.0
16/07:00pm 9.3 3.5 6.2 81 1.5 N 26 37 14 20 1008.8 1009.1 0.0
16/06:30pm 9.4 2.8 5.9 79 1.6 N 30 37 16 20 1008.9 1009.2 0.0
16/06:00pm 9.4 2.4 5.9 79 1.6 NNE 32 41 17 22 1008.9 1009.2 0.0
16/05:30pm 9.4 2.3 5.6 77 1.8 N 32 43 17 23 1008.8 1009.1 0.0
16/05:00pm 9.6 2.9 5.6 76 1.9 N 30 39 16 21 1008.9 1009.2 0.0
16/04:30pm 9.7 2.9 5.3 74 2.0 NNE 30 43 16 23 1008.9 1009.2 0.0
16/04:00pm 9.8 3.4 5.4 74 2.0 NNE 28 37 15 20 1008.9 1009.2 0.0
16/03:30pm 9.8 3.8 5.2 73 2.1 N 26 39 14 21 1009.1 1009.4 0.0
16/03:00pm 10.5 4.6 5.9 73 2.2 N 26 37 14 20 1009.2 1009.5 0.0
16/02:30pm 10.5 4.3 6.1 74 2.1 N 28 39 15 21 1009.3 1009.6 0.0
16/02:00pm 10.3 4.3 5.3 71 2.3 NNE 26 37 14 20 1009.5 1009.8 0.0
16/01:30pm 10.6 5.0 5.4 70 2.4 N 24 37 13 20 1009.5 1009.8 0.0
16/01:00pm 10.4 4.4 5.4 71 2.3 N 26 33 14 18 1010.1 1010.3 0.0
16/12:30pm 10.9 5.3 5.2 68 2.6 N 24 32 13 17 1010.7 1010.9 0.0
16/12:00pm 10.7 5.0 5.0 68 2.6 N 24 33 13 18 1011.1 1011.3 0.0
16/11:30am 11.1 4.7 5.0 66 2.8 N 28 39 15 21 1011.4 1011.6 0.0
16/11:00am 11.3 5.2 4.7 64 3.0 N 26 35 14 19 1011.9 1012.1 0.0
16/10:30am 11.2 6.4 5.7 69 2.6 N 20 26 11 14 1012.2 1012.4 0.0
16/10:00am 10.2 5.4 5.4 72 2.2 N 20 28 11 15 1012.5 1012.8 0.0
16/09:30am 11.0 6.8 5.7 70 2.5 NNE 17 24 9 13 1012.6 1012.9 0.0
16/09:00am 10.0 5.3 5.0 71 2.3 N 19 24 10 13 1012.9 1013.2 0.0
16/08:30am 9.5 4.8 5.1 74 2.0 N 19 24 10 13 1012.9 1013.2 0.0
16/08:00am 8.2 3.2 4.6 78 1.6 N 20 30 11 16 1013.0 1013.3 0.0
16/07:30am 8.6 3.6 4.8 77 1.7 N 20 28 11 15 1013.0 1013.3 0.0
16/07:00am 7.6 2.8 4.7 82 1.3 N 19 26 10 14 1013.0 1013.3 0.0
16/06:30am 7.3 1.9 4.4 82 1.3 N 22 30 12 16 1013.0 1013.3 0.0
16/06:00am 7.1 2.0 4.2 82 1.3 N 20 30 11 16 1012.9 1013.2 0.0
16/05:30am 7.4 1.9 4.2 80 1.4 N 22 30 12 16 1012.8 1013.1 0.0
16/05:00am 7.4 1.5 4.0 79 1.5 N 24 33 13 18 1012.9 1013.2 0.0
16/04:30am 7.3 1.8 4.1 80 1.4 N 22 28 12 15 1012.9 1013.2 0.0
16/04:00am 7.3 1.8 4.1 80 1.4 N 22 30 12 16 1012.9 1013.2 0.0
16/03:30am 7.3 1.4 4.1 80 1.4 N 24 32 13 17 1013.0 1013.3 0.0
16/03:00am 7.2 1.3 3.8 79 1.5 N 24 30 13 16 1013.1 1013.4 0.0
16/02:30am 7.0 1.8 3.6 79 1.5 N 20 26 11 14 1013.5 1013.8 0.0
16/02:00am 6.9 3.1 3.9 81 1.3 NNE 13 20 7 11 1013.8 1014.1 0.0
16/01:30am 6.6 3.2 3.8 82 1.2 NNE 11 15 6 8 1014.5 1014.7 0.0
16/01:00am 6.1 2.6 3.3 82 1.2 N 11 15 6 8 1014.8 1015.0 0.0
16/12:30am 6.0 2.4 3.2 82 1.2 N 11 15 6 8 1015.0 1015.2 0.0
16/12:00am 5.9 2.3 2.9 81 1.3 N 11 17 6 9 1015.2 1015.4 0.0
 
Date/Time
EST
Tmp

°C
App
Tmp
°C
Dew
Point
°C
Rel
Hum
%
Delta-T

°C
Wind Press
QNH
hPa
Press
MSL
hPa
Rain
since
9 am
mm
Dir
 
Spd
km/h
Gust
km/h
Spd
kts
Gust
kts
15/11:30pm 6.1 2.5 3.1 81 1.3 N 11 15 6 8 1015.5 1015.7 0.0
15/11:00pm 6.4 3.6 2.9 78 1.5 N 7 13 4 7 1015.6 1015.8 0.0
15/10:30pm 6.3 3.6 2.4 76 1.6 NNE 6 9 3 5 1016.0 1016.3 0.0
15/10:00pm 6.7 4.7 2.4 74 1.8 ENE 2 6 1 3 1016.0 1016.3 0.0
15/09:30pm 6.8 4.5 2.5 74 1.8 E 4 6 2 3 1016.2 1016.5 0.0
15/09:00pm 6.5 3.7 2.2 74 1.8 SSE 6 7 3 4 1016.3 1016.6 0.0
15/08:30pm 6.5 3.8 2.4 75 1.7 SSE 6 9 3 5 1016.5 1016.8 0.0
15/08:00pm 6.8 4.5 2.5 74 1.8 S 4 6 2 3 1016.4 1016.7 0.0
15/07:30pm 6.8 4.5 2.7 75 1.7 S 4 6 2 3 1016.4 1016.7 0.0
15/07:00pm 6.7 4.4 2.8 76 1.6 S 4 7 2 4 1016.4 1016.7 0.0
15/06:30pm 6.1 3.1 2.0 75 1.7 S 7 13 4 7 1016.2 1016.5 0.0
15/06:00pm 6.6 3.3 2.3 74 1.8 SSW 9 15 5 8 1016.2 1016.5 0.0
15/05:30pm 7.1 3.4 2.2 71 2.0 S 11 20 6 11 1016.1 1016.4 0.0
15/05:00pm 8.0 3.6 2.5 68 2.3 SSW 15 24 8 13 1015.9 1016.2 0.0
15/04:30pm 8.5 3.6 1.9 63 2.8 SSW 17 24 9 13 1015.9 1016.2 0.0
15/04:00pm 8.8 3.7 2.8 66 2.6 SSW 19 26 10 14 1016.0 1016.3 0.0
15/03:30pm 8.9 3.7 2.3 63 2.8 SSW 19 30 10 16 1016.0 1016.3 0.0
15/03:00pm 8.6 2.6 3.6 71 2.2 SW 24 35 13 19 1016.3 1016.6 0.0
15/02:30pm 9.1 2.9 4.1 71 2.2 SW 26 37 14 20 1016.5 1016.8 0.0
15/02:00pm 8.8 5.6 3.0 67 2.5 SW 9 22 5 12 1016.8 1017.1 0.0
15/01:30pm 9.7 5.7 2.6 61 3.1 SW 13 24 7 13 1016.9 1017.2 0.0
15/01:00pm 9.9 5.7 1.8 57 3.4 WSW 13 24 7 13 1017.2 1017.5 0.0
15/12:30pm 9.8 4.9 1.7 57 3.4 SW 17 30 9 16 1017.3 1017.6 0.0
15/12:00pm 8.4 2.9 1.8 63 2.8 SSW 20 33 11 18 1017.5 1017.8 0.0
15/11:30am 8.5 4.8 2.5 66 2.6 SW 11 30 6 16 1017.7 1018.0 0.0
15/11:00am 8.3 3.8 2.1 65 2.6 SW 15 32 8 17 1017.7 1018.0 0.0
15/10:30am 8.3 3.3 1.5 62 2.8 SSW 17 37 9 20 1017.8 1018.1 0.0
15/10:00am 8.3 3.3 1.5 62 2.8 SW 17 30 9 16 1017.8 1018.1 0.0
15/09:30am 8.4 1.6 1.1 60 3.0 SW 26 39 14 21 1017.6 1017.9 0.0
15/09:00am 8.2 2.3 1.6 63 2.7 SSW 22 37 12 20 1017.5 1017.8 0.0
15/08:30am 8.2 2.2 1.1 61 2.9 SSW 22 43 12 23 1017.5 1017.8 0.0
15/08:00am 8.0 1.6 1.0 61 2.9 SSW 24 39 13 21 1017.4 1017.7 0.0
15/07:30am 7.9 1.6 1.5 64 2.6 SSW 24 43 13 23 1017.2 1017.5 0.0
15/07:00am 7.7 2.6 0.9 62 2.8 SW 17 39 9 21 1017.1 1017.4 0.0
15/06:30am 7.7 1.0 1.5 65 2.6 SW 26 44 14 24 1016.9 1017.2 0.0
15/06:00am 7.1 0.4 1.6 68 2.3 SSW 26 43 14 23 1016.9 1017.2 0.0
15/05:30am 7.7 -0.2 2.4 69 2.2 SW 33 52 18 28 1016.7 1017.0 0.0
15/05:00am 7.4 -0.1 1.5 66 2.4 SW 30 48 16 26 1016.7 1017.0 0.0
15/04:30am 7.7 -0.9 0.4 60 2.9 SW 35 54 19 29 1016.6 1016.9 0.0
15/04:05am 7.8 -0.3 1.0 62 2.8 SW 33 54 18 29 1016.6 1016.9 0.0
15/04:00am 7.7 -0.4 1.1 63 2.7 SW 33 52 18 28 1016.6 1016.9 0.0
15/03:49am 7.6 0.8 2.9 72 2.0 SSW 28 48 15 26 1016.6 1016.9 0.0
15/03:30am 7.5 2.3 2.4 70 2.1 SW 19 44 10 24 1016.5 1016.8 0.0
15/03:01am 8.0 0.8 1.0 61 2.9 SW 28 57 15 31 1016.5 1016.8 0.0
15/03:00am 8.0 1.2 0.7 60 3.0 SW 26 52 14 28 1016.5 1016.8 0.0
15/02:30am 8.0 2.3 0.7 60 3.0 SW 20 41 11 22 1016.7 1017.0 0.0
15/02:00am 8.0 0.4 0.3 58 3.1 SW 30 50 16 27 1016.7 1017.0 0.0
15/01:42am 8.1 0.8 0.3 58 3.1 SW 28 57 15 31 1016.8 1017.1 0.0
15/01:30am 8.1 2.2 1.9 65 2.6 SW 22 46 12 25 1016.8 1017.1 0.0
15/01:01am 8.1 0.8 0.3 58 3.1 SW 28 57 15 31 1016.9 1017.2 0.0
15/01:00am 8.2 1.4 0.7 59 3.0 SW 26 57 14 31 1016.9 1017.2 0.0
15/12:30am 7.9 0.7 0.4 59 3.0 SSW 28 54 15 29 1016.9 1017.2 0.0
15/12:14am 7.8 0.6 0.8 61 2.8 SSW 28 59 15 32 1016.7 1017.0 0.0
15/12:00am 8.0 2.1 1.8 65 2.6 SW 22 43 12 23 1016.7 1017.0 0.0
 
Date/Time
EST
Tmp

°C
App
Tmp
°C
Dew
Point
°C
Rel
Hum
%
Delta-T

°C
Wind Press
QNH
hPa
Press
MSL
hPa
Rain
since
9 am
mm
Dir
 
Spd
km/h
Gust
km/h
Spd
kts
Gust
kts
14/11:30pm 7.9 2.5 1.5 64 2.6 SW 19 43 10 23 1016.8 1017.1 0.0
14/11:03pm 8.2 -0.8 2.4 67 2.5 SW 39 57 21 31 1016.6 1016.9 0.0
14/11:00pm 8.2 -1.5 2.7 68 2.3 SW 43 61 23 33 1016.7 1017.0 0.0
14/10:30pm 8.3 0.4 2.3 66 2.5 SSW 33 67 18 36 1016.9 1017.2 0.0
14/10:00pm 8.3 0.5 1.5 62 2.8 SW 32 59 17 32 1016.8 1017.1 0.0
14/09:30pm 8.1 -2.9 0.6 59 3.0 SW 48 72 26 39 1016.6 1016.9 0.0
14/09:00pm 8.0 -1.8 2.0 66 2.5 SW 43 65 23 35 1016.6 1016.9 0.0
14/08:30pm 8.1 -2.0 3.6 73 2.0 SW 46 69 25 37 1016.4 1016.7 0.0
14/08:00pm 8.2 -0.3 2.9 69 2.3 SW 37 69 20 37 1016.2 1016.5 0.0
14/07:30pm 8.1 0.6 3.4 72 2.0 SW 32 57 17 31 1016.0 1016.3 0.0
14/07:01pm 8.3 1.4 2.8 68 2.4 SW 28 67 15 36 1015.7 1015.9 0.0
14/07:00pm 8.3 1.8 2.8 68 2.4 SW 26 67 14 36 1015.8 1016.0 0.0
14/06:30pm 8.3 0.9 2.1 65 2.6 SW 30 67 16 36 1015.5 1015.7 0.0
14/06:03pm 8.1 1.3 3.2 71 2.1 WSW 28 54 15 29 1015.1 1015.3 0.0
14/06:00pm 8.1 1.7 3.4 72 2.0 WSW 26 54 14 29 1015.1 1015.3 0.0
14/05:32pm 8.3 1.6 3.9 74 1.9 WSW 28 59 15 32 1014.8 1015.0 0.0
14/05:30pm 8.3 2.1 4.1 75 1.9 WSW 26 59 14 32 1014.8 1015.0 0.0

Latest Capital City Observations: Canberra | Sydney | Melbourne | Brisbane | Adelaide | Perth | Hobart | Darwin

Other Formats:

Comma delimited format used in spreadsheet applications
http://www.bom.gov.au/fwo/IDT60901/IDT60901.95986.axf

JavaScript Object Notation format (JSON) in row-major order
http://www.bom.gov.au/fwo/IDT60901/IDT60901.95986.json